createdAt,value
2023-04-17T00:02:01.757Z,4.00
2023-04-17T00:04:29.184Z,3.50
2023-04-17T00:06:56.920Z,3.92
2023-04-17T00:09:24.007Z,3.67
2023-04-17T00:11:51.437Z,3.88
2023-04-17T00:14:18.597Z,3.75
2023-04-17T00:16:45.984Z,3.85
2023-04-17T00:19:15.573Z,3.70
2023-04-17T00:21:42.765Z,3.75
2023-04-17T00:24:09.874Z,4.07
2023-04-17T00:26:37.196Z,3.80
2023-04-17T00:29:04.477Z,3.60
2023-04-17T00:31:31.813Z,3.80
2023-04-17T00:34:01.513Z,4.20
2023-04-17T00:36:31.908Z,4.28
2023-04-17T00:38:59.466Z,3.97
2023-04-17T00:41:26.750Z,4.10
2023-04-17T00:43:54.119Z,3.95
2023-04-17T00:46:21.401Z,3.95
2023-04-17T00:48:49.567Z,4.13
2023-04-17T00:51:17.042Z,4.15
2023-04-17T00:53:44.540Z,4.00
2023-04-17T00:56:12.029Z,3.78
2023-04-17T00:58:40.494Z,3.97
2023-04-17T01:01:08.013Z,4.28
2023-04-17T01:03:35.670Z,4.10
2023-04-17T01:06:03.908Z,4.03
2023-04-17T01:08:42.418Z,4.00
2023-04-17T01:11:10.986Z,3.72
2023-04-17T01:13:41.242Z,3.88
2023-04-17T01:16:08.622Z,4.40
2023-04-17T01:18:35.788Z,3.88
2023-04-17T01:21:03.406Z,3.85
2023-04-17T01:23:42.868Z,4.57
2023-04-17T01:26:11.820Z,4.38
2023-04-17T01:28:39.467Z,4.03
2023-04-17T01:31:06.825Z,5.32
2023-04-17T01:33:34.099Z,4.30
2023-04-17T01:36:01.517Z,3.75
2023-04-17T01:38:28.726Z,4.03
2023-04-17T01:40:56.364Z,3.58
2023-04-17T01:43:23.487Z,4.90
2023-04-17T01:45:50.751Z,4.13
2023-04-17T01:48:18.026Z,4.10
2023-04-17T01:50:45.255Z,3.90
2023-04-17T01:53:12.534Z,3.92
2023-04-17T01:55:39.737Z,4.15
2023-04-17T01:58:06.910Z,3.85
2023-04-17T02:00:34.341Z,4.15
2023-04-17T02:03:01.619Z,4.63
2023-04-17T02:05:28.899Z,3.55
2023-04-17T02:07:56.146Z,4.10
2023-04-17T02:10:23.455Z,3.70
2023-04-17T02:12:50.564Z,4.00
2023-04-17T02:15:18.038Z,3.50
2023-04-17T02:17:45.340Z,3.65
2023-04-17T02:20:12.864Z,3.15
2023-04-17T02:22:40.097Z,4.25
2023-04-17T02:25:07.641Z,4.47
2023-04-17T02:27:34.797Z,3.70
2023-04-17T02:30:02.281Z,4.20
2023-04-17T02:32:29.429Z,3.80
2023-04-17T02:34:56.769Z,4.22
2023-04-17T02:37:24.316Z,4.45
2023-04-17T02:39:54.524Z,4.05
2023-04-17T02:42:21.651Z,4.55
2023-04-17T02:44:48.936Z,4.43
2023-04-17T02:47:16.176Z,4.00
2023-04-17T02:49:43.390Z,4.75
2023-04-17T02:52:11.173Z,4.53
2023-04-17T02:54:38.489Z,4.43
2023-04-17T02:57:06.998Z,5.00
2023-04-17T02:59:34.501Z,4.53
2023-04-17T03:02:04.011Z,4.53
2023-04-17T03:04:34.557Z,3.97
2023-04-17T03:07:01.854Z,4.65
2023-04-17T03:09:29.123Z,4.15
2023-04-17T03:11:56.754Z,4.57
2023-04-17T03:14:24.072Z,4.68
2023-04-17T03:16:51.327Z,4.82
2023-04-17T03:19:18.812Z,4.55
2023-04-17T03:21:46.294Z,5.07
2023-04-17T03:24:13.461Z,4.60
2023-04-17T03:26:40.684Z,4.50
2023-04-17T03:29:15.122Z,4.60
2023-04-17T03:31:42.519Z,4.28
2023-04-17T03:34:09.763Z,4.47
2023-04-17T03:36:37.620Z,4.15
2023-04-17T03:39:05.287Z,4.65
2023-04-17T03:41:32.713Z,4.38
2023-04-17T03:44:00.837Z,4.78
2023-04-17T03:46:29.540Z,5.20
2023-04-17T03:48:56.765Z,4.72
2023-04-17T03:51:24.524Z,5.03
2023-04-17T03:53:54.080Z,4.28
2023-04-17T03:56:21.925Z,4.38
2023-04-17T03:58:49.232Z,4.85
2023-04-17T04:01:18.569Z,5.30
2023-04-17T04:04:02.645Z,4.78
2023-04-17T04:06:30.566Z,4.80
2023-04-17T04:08:58.680Z,4.78
2023-04-17T04:11:26.086Z,4.38
2023-04-17T04:13:53.299Z,5.38
2023-04-17T04:16:20.907Z,5.28
2023-04-17T04:18:49.962Z,5.25
2023-04-17T04:21:18.396Z,5.45
2023-04-17T04:23:45.675Z,5.10
2023-04-17T04:26:17.176Z,4.63
2023-04-17T04:28:50.625Z,4.88
2023-04-17T04:31:29.889Z,4.88
2023-04-17T04:33:59.968Z,4.47
2023-04-17T04:36:30.250Z,4.60
2023-04-17T04:38:59.952Z,4.28
2023-04-17T04:41:34.190Z,4.93
2023-04-17T04:44:04.408Z,4.63
2023-04-17T04:46:32.832Z,4.53
2023-04-17T04:49:00.961Z,3.92
2023-04-17T04:51:28.389Z,3.90
2023-04-17T04:53:56.147Z,5.30
2023-04-17T04:56:24.162Z,4.22
2023-04-17T04:58:51.553Z,4.25
2023-04-17T05:01:21.029Z,5.38
2023-04-17T05:03:49.943Z,5.07
2023-04-17T05:06:23.388Z,5.22
2023-04-17T05:08:56.383Z,6.38
2023-04-17T05:11:25.532Z,6.20
2023-04-17T05:13:52.891Z,6.60
2023-04-17T05:16:25.542Z,6.53
2023-04-17T05:18:53.306Z,7.03
2023-04-17T05:21:31.245Z,6.78
2023-04-17T05:24:00.477Z,7.03
2023-04-17T05:26:27.973Z,7.78
2023-04-17T05:28:55.443Z,6.50
2023-04-17T05:31:27.287Z,7.28
2023-04-17T05:33:55.961Z,6.90
2023-04-17T05:36:23.224Z,6.82
2023-04-17T05:38:52.774Z,6.85
2023-04-17T05:41:20.076Z,6.78
2023-04-17T05:43:47.292Z,7.05
2023-04-17T05:46:14.629Z,6.38
2023-04-17T05:48:44.119Z,6.97
2023-04-17T05:51:11.895Z,5.82
2023-04-17T05:53:39.376Z,6.85
2023-04-17T05:56:06.670Z,6.68
2023-04-17T05:58:36.228Z,6.70
2023-04-17T06:01:06.508Z,5.82
2023-04-17T06:03:35.248Z,6.50
2023-04-17T06:06:10.133Z,6.50
2023-04-17T06:08:37.282Z,6.80
2023-04-17T06:11:05.626Z,6.28
2023-04-17T06:13:33.944Z,6.75
2023-04-17T06:16:01.303Z,7.00
2023-04-17T06:18:28.694Z,6.60
2023-04-17T06:20:56.209Z,5.60
2023-04-17T06:23:23.513Z,5.13
2023-04-17T06:25:50.689Z,5.68
2023-04-17T06:28:19.005Z,5.28
2023-04-17T06:30:47.323Z,6.40
2023-04-17T06:33:14.745Z,5.35
2023-04-17T06:35:42.896Z,5.20
2023-04-17T06:38:30.052Z,5.72
2023-04-17T06:40:57.969Z,5.93
2023-04-17T06:43:25.215Z,6.28
2023-04-17T06:45:53.924Z,5.35
2023-04-17T06:48:21.184Z,5.28
2023-04-17T06:50:49.268Z,5.55
2023-04-17T06:53:16.455Z,5.68
2023-04-17T06:55:43.899Z,5.07
2023-04-17T06:58:11.183Z,5.22
2023-04-17T07:00:38.487Z,5.20
2023-04-17T07:03:06.288Z,4.70
2023-04-17T07:05:33.691Z,5.00
2023-04-17T07:08:00.824Z,5.13
2023-04-17T07:10:28.210Z,5.63
2023-04-17T07:12:55.351Z,5.80
2023-04-17T07:15:22.684Z,4.57
2023-04-17T07:17:50.122Z,5.50
2023-04-17T07:20:17.418Z,5.50
2023-04-17T07:22:44.539Z,4.80
2023-04-17T07:25:11.860Z,5.35
2023-04-17T07:27:39.534Z,5.55
2023-04-17T07:30:08.631Z,5.40
2023-04-17T07:32:36.498Z,5.68
2023-04-17T07:35:04.632Z,5.28
2023-04-17T07:37:31.838Z,5.10
2023-04-17T07:39:59.163Z,5.13
2023-04-17T07:42:26.285Z,4.88
2023-04-17T07:44:53.439Z,5.32
2023-04-17T07:47:20.882Z,5.40
2023-04-17T07:49:49.359Z,5.47
2023-04-17T07:52:18.032Z,5.35
2023-04-17T07:54:45.742Z,4.97
2023-04-17T07:57:14.364Z,4.60
2023-04-17T07:59:41.926Z,5.07
2023-04-17T08:02:09.571Z,5.18
2023-04-17T08:04:40.403Z,4.93
2023-04-17T08:07:10.757Z,5.20
2023-04-17T08:09:38.579Z,4.05
2023-04-17T08:12:06.368Z,5.10
2023-04-17T08:14:33.701Z,5.00
2023-04-17T08:17:01.063Z,4.72
2023-04-17T08:19:29.943Z,5.13
2023-04-17T08:22:01.914Z,4.10
2023-04-17T08:24:29.163Z,4.80
2023-04-17T08:26:56.860Z,4.38
2023-04-17T08:29:24.952Z,4.55
2023-04-17T08:32:00.220Z,4.82
2023-04-17T08:34:38.900Z,4.95
2023-04-17T08:37:06.252Z,4.38
2023-04-17T08:39:33.484Z,4.50
2023-04-17T08:42:03.963Z,4.50
2023-04-17T08:44:31.244Z,4.97
2023-04-17T08:46:58.940Z,4.60
2023-04-17T08:49:29.465Z,4.57
2023-04-17T08:51:56.765Z,4.60
2023-04-17T08:54:24.058Z,4.90
2023-04-17T08:56:51.246Z,4.85
2023-04-17T08:59:18.461Z,4.60
2023-04-17T09:02:02.265Z,4.10
2023-04-17T09:04:45.799Z,4.60
2023-04-17T09:07:15.924Z,4.75
2023-04-17T09:09:46.335Z,4.18
2023-04-17T09:12:14.043Z,4.32
2023-04-17T09:14:41.500Z,4.15
2023-04-17T09:17:08.854Z,4.70
2023-04-17T09:19:36.550Z,5.20
2023-04-17T09:22:06.843Z,4.47
2023-04-17T09:24:35.392Z,4.63
2023-04-17T09:27:05.645Z,4.80
2023-04-17T09:29:32.768Z,4.60
2023-04-17T09:32:16.544Z,4.50
2023-04-17T09:37:10.769Z,4.75
2023-04-17T09:39:38.035Z,5.13
2023-04-17T09:42:06.405Z,4.75
2023-04-17T09:44:37.123Z,5.03
2023-04-17T09:47:05.429Z,4.63
2023-04-17T09:49:42.774Z,4.35
2023-04-17T09:52:12.314Z,4.95
2023-04-17T09:54:40.987Z,4.82
2023-04-17T09:57:09.779Z,5.18
2023-04-17T09:59:41.756Z,5.05
2023-04-17T10:02:11.794Z,5.20
2023-04-17T10:04:42.396Z,4.63
2023-04-17T10:07:11.054Z,5.13
2023-04-17T10:09:41.733Z,4.93
2023-04-17T10:12:11.757Z,4.88
2023-04-17T10:14:43.161Z,5.55
2023-04-17T10:17:29.172Z,5.28
2023-04-17T10:19:56.715Z,4.97
2023-04-17T10:22:31.594Z,5.20
2023-04-17T10:25:02.254Z,5.45
2023-04-17T10:27:50.743Z,5.15
2023-04-17T10:30:18.293Z,6.07
2023-04-17T10:32:46.734Z,5.18
2023-04-17T10:35:34.015Z,5.45
2023-04-17T10:38:04.416Z,5.57
2023-04-17T10:40:34.004Z,5.88
2023-04-17T10:43:18.004Z,5.65
2023-04-17T10:45:48.351Z,4.78
2023-04-17T10:48:18.869Z,6.00
2023-04-17T10:50:47.435Z,5.47
2023-04-17T10:53:17.686Z,5.65
2023-04-17T10:55:48.068Z,6.15
2023-04-17T10:58:15.771Z,6.00
2023-04-17T11:00:46.267Z,5.47
2023-04-17T11:03:16.618Z,5.45
2023-04-17T11:05:47.019Z,5.72
2023-04-17T11:08:14.733Z,6.15
2023-04-17T11:10:42.196Z,6.78
2023-04-17T11:13:10.955Z,6.38
2023-04-17T11:15:38.259Z,6.40
2023-04-17T11:18:05.728Z,6.35
2023-04-17T11:20:36.121Z,6.88
2023-04-17T11:23:04.859Z,6.63
2023-04-17T11:25:34.999Z,7.30
2023-04-17T11:28:05.417Z,7.40
2023-04-17T11:30:35.165Z,7.00
2023-04-17T11:33:05.080Z,6.93
2023-04-17T11:35:34.596Z,6.68
2023-04-17T11:38:05.224Z,6.43
2023-04-17T11:40:33.807Z,7.25
2023-04-17T11:43:06.436Z,7.30
2023-04-17T11:45:34.716Z,7.03
2023-04-17T11:48:02.877Z,6.88
2023-04-17T11:50:31.488Z,6.30
2023-04-17T11:53:01.566Z,5.78
2023-04-17T11:55:31.744Z,6.78
2023-04-17T11:58:01.217Z,7.32
2023-04-17T12:00:30.584Z,6.55
2023-04-17T12:03:00.835Z,6.05
2023-04-17T12:05:30.344Z,6.53
2023-04-17T12:08:01.976Z,5.70
2023-04-17T12:10:32.388Z,6.97
2023-04-17T12:12:59.734Z,6.32
2023-04-17T12:15:27.218Z,6.78
2023-04-17T12:17:54.510Z,6.88
2023-04-17T12:20:21.888Z,7.35
2023-04-17T12:22:49.056Z,7.03
2023-04-17T12:25:16.512Z,6.47
2023-04-17T12:27:43.781Z,6.72
2023-04-17T12:30:11.857Z,6.38
2023-04-17T12:32:39.863Z,6.30
2023-04-17T12:35:07.518Z,6.05
2023-04-17T12:37:34.798Z,6.15
2023-04-17T12:40:02.246Z,6.60
2023-04-17T12:42:31.566Z,6.63
2023-04-17T12:45:03.851Z,6.40
2023-04-17T12:47:31.312Z,6.03
2023-04-17T12:49:58.559Z,6.10
2023-04-17T12:52:26.088Z,5.82
2023-04-17T12:54:58.428Z,6.05
2023-04-17T12:57:28.260Z,5.97
2023-04-17T12:59:55.749Z,6.13
2023-04-17T13:02:24.039Z,6.82
2023-04-17T13:04:53.416Z,5.40
2023-04-17T13:07:21.056Z,5.93
2023-04-17T13:09:48.277Z,5.93
2023-04-17T13:12:15.706Z,6.13
2023-04-17T13:14:43.134Z,5.53
2023-04-17T13:17:10.517Z,5.60
2023-04-17T13:19:40.166Z,6.50
2023-04-17T13:22:08.138Z,6.78
2023-04-17T13:24:36.994Z,6.32
2023-04-17T13:27:04.767Z,6.15
2023-04-17T13:29:32.146Z,5.63
2023-04-17T13:31:59.568Z,5.80
2023-04-17T13:34:26.920Z,5.20
2023-04-17T13:36:55.615Z,5.88
2023-04-17T13:39:22.951Z,6.32
2023-04-17T13:41:50.366Z,5.20
2023-04-17T13:44:18.734Z,5.72
2023-04-17T13:46:46.251Z,5.90
2023-04-17T13:49:13.877Z,5.55
2023-04-17T13:51:41.364Z,5.82
2023-04-17T13:54:10.252Z,5.55
2023-04-17T13:56:37.825Z,5.85
2023-04-17T13:59:05.987Z,5.60
2023-04-17T14:01:33.777Z,5.95
2023-04-17T14:04:01.193Z,6.90
2023-04-17T14:06:29.837Z,6.25
2023-04-17T14:08:58.585Z,6.00
2023-04-17T14:11:26.034Z,6.45
2023-04-17T14:13:53.428Z,6.00
2023-04-17T14:16:21.462Z,5.47
2023-04-17T14:18:50.308Z,6.85
2023-04-17T14:21:18.591Z,6.20
2023-04-17T14:23:46.069Z,6.50
2023-04-17T14:26:13.552Z,7.28
2023-04-17T14:28:41.156Z,6.40
2023-04-17T14:31:08.634Z,7.10
2023-04-17T14:33:35.966Z,6.32
2023-04-17T14:36:05.215Z,6.07
2023-04-17T14:38:34.213Z,6.38
2023-04-17T14:41:01.670Z,6.32
2023-04-17T14:43:28.956Z,6.88
2023-04-17T14:45:56.465Z,6.38
2023-04-17T14:48:24.236Z,7.03
2023-04-17T14:50:51.580Z,6.45
2023-04-17T14:53:21.247Z,6.45
2023-04-17T14:55:49.316Z,6.25
2023-04-17T14:58:16.765Z,6.68
2023-04-17T15:00:44.138Z,6.80
2023-04-17T15:03:11.690Z,6.90
2023-04-17T15:05:39.166Z,6.10
2023-04-17T15:08:06.415Z,6.30
2023-04-17T15:10:44.249Z,6.32
2023-04-17T15:13:18.075Z,6.28
2023-04-17T15:15:45.423Z,6.50
2023-04-17T15:18:12.705Z,6.43
2023-04-17T15:20:40.604Z,6.70
2023-04-17T15:23:08.018Z,6.32
2023-04-17T15:25:35.297Z,7.13
2023-04-17T15:28:02.720Z,7.07
2023-04-17T15:30:30.076Z,7.70
2023-04-17T15:32:57.462Z,6.43
2023-04-17T15:35:24.777Z,6.88
2023-04-17T15:37:52.158Z,6.95
2023-04-17T15:40:19.356Z,6.57
2023-04-17T15:42:46.637Z,6.57
2023-04-17T15:45:14.337Z,6.57
2023-04-17T15:47:41.783Z,6.80
2023-04-17T15:50:09.636Z,7.13
2023-04-17T15:52:36.980Z,7.78
2023-04-17T15:55:04.685Z,6.50
2023-04-17T15:57:32.129Z,6.22
2023-04-17T15:59:59.492Z,6.57
2023-04-17T16:02:26.996Z,6.47
2023-04-17T16:04:54.406Z,6.53
2023-04-17T16:07:22.358Z,6.38
2023-04-17T16:09:50.966Z,5.90
2023-04-17T16:12:18.470Z,7.63
2023-04-17T16:14:46.005Z,6.82
2023-04-17T16:17:13.357Z,6.03
2023-04-17T16:19:40.655Z,6.35
2023-04-17T16:22:08.197Z,5.47
2023-04-17T16:24:35.494Z,5.45
2023-04-17T16:27:03.161Z,6.15
2023-04-17T16:29:30.615Z,5.97
2023-04-17T16:31:58.277Z,6.18
2023-04-17T16:34:25.716Z,6.13
2023-04-17T16:36:53.315Z,6.03
2023-04-17T16:39:21.847Z,5.82
2023-04-17T16:41:49.213Z,6.65
2023-04-17T16:44:16.575Z,6.38
2023-04-17T16:47:02.901Z,6.45
2023-04-17T16:49:31.484Z,6.50
2023-04-17T16:51:59.811Z,5.82
2023-04-17T16:54:27.193Z,6.10
2023-04-17T16:56:54.795Z,6.45
2023-04-17T16:59:22.183Z,6.65
2023-04-17T17:01:50.042Z,7.10
2023-04-17T17:04:17.458Z,6.80
2023-04-17T17:06:44.862Z,6.28
2023-04-17T17:09:12.473Z,6.13
2023-04-17T17:11:40.465Z,6.72
2023-04-17T17:14:07.882Z,6.03
2023-04-17T17:16:35.382Z,6.40
2023-04-17T17:19:03.054Z,6.97
2023-04-17T17:21:31.193Z,6.15
2023-04-17T17:23:58.914Z,6.68
2023-04-17T17:26:26.405Z,6.50
2023-04-17T17:28:54.402Z,6.60
2023-04-17T17:31:21.778Z,6.80
2023-04-17T17:33:50.505Z,7.50
2023-04-17T17:36:18.048Z,8.65
2023-04-17T17:38:45.315Z,8.30
2023-04-17T17:41:12.786Z,9.05
2023-04-17T17:43:40.061Z,9.00
2023-04-17T17:46:07.476Z,8.60
2023-04-17T17:48:35.260Z,8.45
2023-04-17T17:51:02.726Z,9.02
2023-04-17T17:53:29.991Z,7.95
2023-04-17T17:55:57.723Z,8.35
2023-04-17T17:58:26.618Z,9.23
2023-04-17T18:00:53.998Z,9.05
2023-04-17T18:03:21.439Z,9.40
2023-04-17T18:05:49.094Z,9.60
2023-04-17T18:08:17.495Z,8.23
2023-04-17T18:10:44.957Z,9.45
2023-04-17T18:13:12.299Z,8.75
2023-04-17T18:15:39.788Z,9.95
2023-04-17T18:18:07.290Z,9.50
2023-04-17T18:20:37.402Z,10.30
2023-04-17T18:23:04.781Z,10.10
2023-04-17T18:25:32.257Z,10.02
2023-04-17T18:27:59.508Z,9.80
2023-04-17T18:30:26.870Z,10.18
2023-04-17T18:32:54.309Z,9.65
2023-04-17T18:35:21.728Z,10.00
2023-04-17T18:37:49.060Z,10.32
2023-04-17T18:40:16.618Z,10.63
2023-04-17T18:42:43.906Z,8.75
2023-04-17T18:45:13.757Z,10.45
2023-04-17T18:47:41.197Z,10.48
2023-04-17T18:50:09.229Z,10.93
2023-04-17T18:52:39.704Z,11.38
2023-04-17T18:55:08.439Z,10.48
2023-04-17T18:57:37.530Z,11.05
2023-04-17T19:00:06.210Z,10.05
2023-04-17T19:02:33.721Z,10.70
2023-04-17T19:05:01.198Z,11.13
2023-04-17T19:07:29.543Z,10.55
2023-04-17T19:09:56.978Z,11.05
2023-04-17T19:12:24.316Z,9.52
2023-04-17T19:14:52.085Z,9.85
2023-04-17T19:17:19.491Z,10.32
2023-04-17T19:19:46.782Z,11.07
2023-04-17T19:22:15.980Z,11.27
2023-04-17T19:24:43.668Z,11.85
2023-04-17T19:27:10.904Z,11.25
2023-04-17T19:29:38.243Z,12.43
2023-04-17T19:32:05.923Z,12.10
2023-04-17T19:34:33.354Z,11.88
2023-04-17T19:37:00.774Z,12.40
2023-04-17T19:39:28.654Z,12.65
2023-04-17T19:41:56.049Z,12.48
2023-04-17T19:44:23.497Z,13.57
2023-04-17T19:46:51.229Z,12.40
2023-04-17T19:49:18.705Z,12.48
2023-04-17T19:51:46.165Z,12.70
2023-04-17T19:54:13.767Z,12.35
2023-04-17T19:56:41.019Z,11.73
2023-04-17T19:59:12.692Z,12.50
2023-04-17T20:01:42.939Z,11.23
2023-04-17T20:04:11.401Z,10.82
2023-04-17T20:06:39.866Z,12.55
2023-04-17T20:09:07.283Z,12.20
2023-04-17T20:11:34.944Z,12.73
2023-04-17T20:14:03.781Z,12.90
2023-04-17T20:16:32.335Z,12.30
2023-04-17T20:18:59.624Z,12.77
2023-04-17T20:21:27.018Z,11.52
2023-04-17T20:23:55.531Z,11.50
2023-04-17T20:26:22.877Z,10.23
2023-04-17T20:28:50.217Z,11.10
2023-04-17T20:31:17.700Z,10.45
2023-04-17T20:33:45.092Z,11.43
2023-04-17T20:36:13.159Z,11.93
2023-04-17T20:38:40.767Z,11.80
2023-04-17T20:41:08.146Z,11.23
2023-04-17T20:43:35.585Z,11.93
2023-04-17T20:46:03.290Z,11.02
2023-04-17T20:48:30.848Z,11.57
2023-04-17T20:51:01.224Z,12.70
2023-04-17T20:53:28.544Z,12.55
2023-04-17T20:55:57.800Z,13.02
2023-04-17T20:58:25.470Z,13.60
2023-04-17T21:01:00.660Z,12.52
2023-04-17T21:03:31.208Z,12.70
2023-04-17T21:05:59.176Z,13.73
2023-04-17T21:08:26.885Z,13.90
2023-04-17T21:10:54.206Z,14.32
2023-04-17T21:13:23.107Z,15.38
2023-04-17T21:15:50.512Z,16.25
2023-04-17T21:18:18.045Z,15.20
2023-04-17T21:20:46.103Z,15.68
2023-04-17T21:23:14.062Z,15.48
2023-04-17T21:25:41.318Z,14.05
2023-04-17T21:28:08.805Z,16.63
2023-04-17T21:30:37.364Z,14.80
2023-04-17T21:33:04.836Z,14.93
2023-04-17T21:35:32.218Z,15.00
2023-04-17T21:37:59.552Z,12.93
2023-04-17T21:40:31.010Z,13.55
2023-04-17T21:43:01.543Z,13.90
2023-04-17T21:45:29.008Z,14.43
2023-04-17T21:47:56.598Z,15.05
2023-04-17T21:50:23.957Z,15.27
2023-04-17T21:52:51.388Z,15.00
2023-04-17T21:55:18.695Z,15.93
2023-04-17T21:57:46.222Z,14.55
2023-04-17T22:00:14.501Z,13.20
2023-04-17T22:02:41.999Z,14.15
2023-04-17T22:05:09.739Z,12.30
2023-04-17T22:07:47.245Z,12.52
2023-04-17T22:10:21.657Z,11.70
2023-04-17T22:12:48.928Z,10.55
2023-04-17T22:15:16.348Z,10.25
2023-04-17T22:17:43.736Z,10.45
2023-04-17T22:20:14.151Z,10.70
2023-04-17T22:22:43.062Z,11.25
2023-04-17T22:25:10.507Z,12.10
2023-04-17T22:27:37.837Z,13.18
2023-04-17T22:30:06.378Z,13.30
2023-04-17T22:32:34.884Z,12.90
2023-04-17T22:35:02.905Z,13.75
2023-04-17T22:37:30.385Z,13.43
2023-04-17T22:39:57.718Z,13.07
2023-04-17T22:42:25.457Z,12.75
2023-04-17T22:44:53.089Z,15.30
2023-04-17T22:47:22.131Z,16.02
2023-04-17T22:49:49.522Z,13.88
2023-04-17T22:52:16.886Z,12.93
2023-04-17T22:54:44.257Z,14.88
2023-04-17T22:57:11.842Z,15.50
2023-04-17T22:59:40.387Z,14.27
2023-04-17T23:02:08.284Z,12.60
2023-04-17T23:04:35.756Z,12.88
2023-04-17T23:07:03.309Z,14.90
2023-04-17T23:09:30.870Z,14.00
2023-04-17T23:11:58.232Z,14.73
2023-04-17T23:14:26.498Z,13.02
2023-04-17T23:16:54.031Z,12.73
2023-04-17T23:19:22.917Z,14.40
2023-04-17T23:21:50.500Z,15.80
2023-04-17T23:24:17.838Z,14.55
2023-04-17T23:26:45.255Z,16.20
2023-04-17T23:29:12.501Z,14.77
2023-04-17T23:31:40.143Z,16.70
2023-04-17T23:34:07.468Z,18.08
2023-04-17T23:36:34.861Z,17.73
2023-04-17T23:39:02.244Z,19.55
2023-04-17T23:41:29.769Z,20.92
2023-04-17T23:43:57.325Z,20.48
2023-04-17T23:46:24.902Z,20.92
2023-04-17T23:48:52.285Z,21.75
2023-04-17T23:51:19.686Z,21.80
2023-04-17T23:53:47.069Z,24.25
2023-04-17T23:56:14.496Z,23.42
2023-04-17T23:58:41.773Z,25.42
